sensor_id;sensor_type;location;lat;lon;timestamp;pressure;altitude;pressure_sealevel;temperature;humidity
72802;BME280;61891;55.818;37.084;2022-12-05T00:01:35;102322.31;;;-10.44;60.93
72802;BME280;61891;55.818;37.084;2022-12-05T00:04:05;102404.88;;;-9.88;60.88
72802;BME280;61891;55.818;37.084;2022-12-05T00:06:32;102328.69;;;-10.29;60.79
72802;BME280;61891;55.818;37.084;2022-12-05T00:08:59;102400.66;;;-9.86;60.47
72802;BME280;61891;55.818;37.084;2022-12-05T00:11:28;102274.00;;;-10.63;60.55
72802;BME280;61891;55.818;37.084;2022-12-05T00:13:56;102404.84;;;-9.89;60.92
72802;BME280;61891;55.818;37.084;2022-12-05T00:16:24;102363.25;;;-10.12;61.08
72802;BME280;61891;55.818;37.084;2022-12-05T00:18:50;102374.59;;;-10.02;60.35
72802;BME280;61891;55.818;37.084;2022-12-05T00:21:24;102290.47;;;-10.53;60.86
72802;BME280;61891;55.818;37.084;2022-12-05T00:23:51;102387.50;;;-9.99;61.02
72802;BME280;61891;55.818;37.084;2022-12-05T00:26:17;102382.22;;;-10.05;60.59
72802;BME280;61891;55.818;37.084;2022-12-05T00:28:43;102384.91;;;-10.01;61.10
72802;BME280;61891;55.818;37.084;2022-12-05T00:31:20;102332.00;;;-10.33;60.92
72802;BME280;61891;55.818;37.084;2022-12-05T00:33:46;102344.28;;;-10.19;60.63
72802;BME280;61891;55.818;37.084;2022-12-05T00:38:43;102331.44;;;-10.22;60.89
72802;BME280;61891;55.818;37.084;2022-12-05T00:41:12;102340.84;;;-10.19;61.49
72802;BME280;61891;55.818;37.084;2022-12-05T00:43:38;102362.56;;;-10.05;61.12
72802;BME280;61891;55.818;37.084;2022-12-05T00:46:12;102345.91;;;-10.24;61.16
72802;BME280;61891;55.818;37.084;2022-12-05T00:48:38;102362.50;;;-10.08;60.90
72802;BME280;61891;55.818;37.084;2022-12-05T00:51:07;102340.09;;;-10.15;61.11
72802;BME280;61891;55.818;37.084;2022-12-05T00:53:33;102325.22;;;-10.31;61.28
72802;BME280;61891;55.818;37.084;2022-12-05T00:56:06;102296.47;;;-10.53;60.78
72802;BME280;61891;55.818;37.084;2022-12-05T00:58:33;102350.28;;;-10.20;61.27
72802;BME280;61891;55.818;37.084;2022-12-05T01:01:15;102298.22;;;-10.52;61.30
72802;BME280;61891;55.818;37.084;2022-12-05T01:03:42;102344.97;;;-10.27;60.92
72802;BME280;61891;55.818;37.084;2022-12-05T01:06:09;102341.47;;;-10.31;61.09
72802;BME280;61891;55.818;37.084;2022-12-05T01:08:35;102339.69;;;-10.33;61.04
72802;BME280;61891;55.818;37.084;2022-12-05T01:11:02;102341.28;;;-10.38;61.22
72802;BME280;61891;55.818;37.084;2022-12-05T01:13:29;102328.22;;;-10.48;61.62
72802;BME280;61891;55.818;37.084;2022-12-05T01:15:54;102330.00;;;-10.44;62.06
72802;BME280;61891;55.818;37.084;2022-12-05T01:18:21;102297.03;;;-10.64;61.46
72802;BME280;61891;55.818;37.084;2022-12-05T01:20:47;102293.47;;;-10.71;62.01
72802;BME280;61891;55.818;37.084;2022-12-05T01:23:13;102334.91;;;-10.53;61.92
72802;BME280;61891;55.818;37.084;2022-12-05T01:25:45;102261.34;;;-10.91;61.51
72802;BME280;61891;55.818;37.084;2022-12-05T01:28:12;102284.72;;;-10.79;61.80
72802;BME280;61891;55.818;37.084;2022-12-05T01:30:39;102322.03;;;-10.56;61.74
72802;BME280;61891;55.818;37.084;2022-12-05T01:33:05;102280.47;;;-10.79;61.83
72802;BME280;61891;55.818;37.084;2022-12-05T01:35:32;102296.06;;;-10.69;61.94
72802;BME280;61891;55.818;37.084;2022-12-05T01:37:58;102314.06;;;-10.66;62.13
72802;BME280;61891;55.818;37.084;2022-12-05T01:40:24;102306.31;;;-10.69;61.69
72802;BME280;61891;55.818;37.084;2022-12-05T01:42:50;102310.56;;;-10.70;62.12
72802;BME280;61891;55.818;37.084;2022-12-05T01:45:23;102297.78;;;-10.68;61.85
72802;BME280;61891;55.818;37.084;2022-12-05T01:47:51;102305.50;;;-10.67;61.79
72802;BME280;61891;55.818;37.084;2022-12-05T01:50:17;102307.16;;;-10.69;61.94
72802;BME280;61891;55.818;37.084;2022-12-05T01:52:42;102301.16;;;-10.71;62.02
72802;BME280;61891;55.818;37.084;2022-12-05T01:55:12;102254.97;;;-11.07;62.36
72802;BME280;61891;55.818;37.084;2022-12-05T01:57:40;102308.81;;;-10.71;62.30
72802;BME280;61891;55.818;37.084;2022-12-05T02:00:12;102268.84;;;-10.99;61.96
72802;BME280;61891;55.818;37.084;2022-12-05T02:02:41;102290.47;;;-10.88;61.93
72802;BME280;61891;55.818;37.084;2022-12-05T02:05:20;102271.69;;;-10.88;62.57
72802;BME280;61891;55.818;37.084;2022-12-05T02:07:46;102310.69;;;-10.65;62.41
72802;BME280;61891;55.818;37.084;2022-12-05T02:10:12;102263.03;;;-10.92;62.05
72802;BME280;61891;55.818;37.084;2022-12-05T02:12:39;102295.25;;;-10.67;61.95
72802;BME280;61891;55.818;37.084;2022-12-05T02:18:00;102298.66;;;-10.68;62.42
72802;BME280;61891;55.818;37.084;2022-12-05T02:26:17;102302.09;;;-10.67;62.27
72802;BME280;61891;55.818;37.084;2022-12-05T02:32:09;102292.56;;;-10.73;62.13
72802;BME280;61891;55.818;37.084;2022-12-05T02:37:17;102293.16;;;-10.83;62.02
72802;BME280;61891;55.818;37.084;2022-12-05T02:40:02;102265.41;;;-10.99;62.27
72802;BME280;61891;55.818;37.084;2022-12-05T02:42:48;102282.91;;;-10.83;62.48
72802;BME280;61891;55.818;37.084;2022-12-05T02:45:17;102249.06;;;-11.04;62.10
72802;BME280;61891;55.818;37.084;2022-12-05T02:47:48;102240.31;;;-11.13;62.21
72802;BME280;61891;55.818;37.084;2022-12-05T02:50:19;102270.69;;;-10.93;62.03
72802;BME280;61891;55.818;37.084;2022-12-05T02:52:47;102260.09;;;-11.07;62.04
72802;BME280;61891;55.818;37.084;2022-12-05T02:55:14;102266.25;;;-11.00;62.73
72802;BME280;61891;55.818;37.084;2022-12-05T02:57:45;102208.97;;;-11.37;62.12
72802;BME280;61891;55.818;37.084;2022-12-05T03:00:13;102271.28;;;-11.03;62.36
72802;BME280;61891;55.818;37.084;2022-12-05T03:02:39;102264.34;;;-11.08;62.54
72802;BME280;61891;55.818;37.084;2022-12-05T03:07:59;102265.94;;;-11.13;62.22
72802;BME280;61891;55.818;37.084;2022-12-05T03:10:29;102261.75;;;-11.09;62.51
72802;BME280;61891;55.818;37.084;2022-12-05T03:13:04;102258.28;;;-11.11;62.39
72802;BME280;61891;55.818;37.084;2022-12-05T03:15:43;102217.72;;;-11.29;62.29
72802;BME280;61891;55.818;37.084;2022-12-05T03:18:18;102209.88;;;-11.35;62.40
72802;BME280;61891;55.818;37.084;2022-12-05T03:20:48;102255.69;;;-11.13;62.69
72802;BME280;61891;55.818;37.084;2022-12-05T03:23:41;102224.47;;;-11.31;62.32
72802;BME280;61891;55.818;37.084;2022-12-05T03:32:10;102233.09;;;-11.27;62.73
72802;BME280;61891;55.818;37.084;2022-12-05T03:35:26;102239.13;;;-11.25;62.67
72802;BME280;61891;55.818;37.084;2022-12-05T03:46:05;102195.72;;;-11.54;62.60
72802;BME280;61891;55.818;37.084;2022-12-05T03:48:44;102218.28;;;-11.39;63.03
72802;BME280;61891;55.818;37.084;2022-12-05T03:51:15;102200.06;;;-11.51;62.78
72802;BME280;61891;55.818;37.084;2022-12-05T03:53:48;102235.63;;;-11.29;62.73
72802;BME280;61891;55.818;37.084;2022-12-05T03:56:21;102230.56;;;-11.27;62.78
72802;BME280;61891;55.818;37.084;2022-12-05T03:58:55;102218.38;;;-11.36;62.48
72802;BME280;61891;55.818;37.084;2022-12-05T04:01:24;102230.63;;;-11.24;62.59
72802;BME280;61891;55.818;37.084;2022-12-05T04:03:58;102232.38;;;-11.23;63.00
72802;BME280;61891;55.818;37.084;2022-12-05T04:06:30;102227.19;;;-11.25;62.74
72802;BME280;61891;55.818;37.084;2022-12-05T04:09:01;102220.34;;;-11.26;62.79
72802;BME280;61891;55.818;37.084;2022-12-05T04:11:33;102215.88;;;-11.34;62.86
72802;BME280;61891;55.818;37.084;2022-12-05T04:14:41;102214.22;;;-11.32;62.37
72802;BME280;61891;55.818;37.084;2022-12-05T04:19:41;102211.03;;;-11.24;62.83
72802;BME280;61891;55.818;37.084;2022-12-05T04:22:29;102207.56;;;-11.26;62.96
72802;BME280;61891;55.818;37.084;2022-12-05T04:24:57;102199.72;;;-11.32;62.59
72802;BME280;61891;55.818;37.084;2022-12-05T04:30:42;102155.66;;;-11.53;62.31
72802;BME280;61891;55.818;37.084;2022-12-05T04:33:10;102194.53;;;-11.35;62.74
72802;BME280;61891;55.818;37.084;2022-12-05T04:38:42;102133.94;;;-11.69;62.40
72802;BME280;61891;55.818;37.084;2022-12-05T04:41:16;102080.13;;;-12.07;62.43
72802;BME280;61891;55.818;37.084;2022-12-05T04:43:46;102181.47;;;-11.44;62.39
72802;BME280;61891;55.818;37.084;2022-12-05T04:46:15;102176.25;;;-11.49;62.76
72802;BME280;61891;55.818;37.084;2022-12-05T04:48:45;102081.97;;;-12.01;62.76
72802;BME280;61891;55.818;37.084;2022-12-05T04:51:18;102174.63;;;-11.45;62.96
72802;BME280;61891;55.818;37.084;2022-12-05T04:53:46;102183.38;;;-11.37;62.82
72802;BME280;61891;55.818;37.084;2022-12-05T04:56:15;102144.63;;;-11.51;63.22
72802;BME280;61891;55.818;37.084;2022-12-05T04:58:44;102159.38;;;-11.42;62.37
72802;BME280;61891;55.818;37.084;2022-12-05T05:01:21;102179.94;;;-11.38;62.53
72802;BME280;61891;55.818;37.084;2022-12-05T05:03:58;102071.00;;;-11.97;62.24
72802;BME280;61891;55.818;37.084;2022-12-05T05:06:25;102176.59;;;-11.35;62.73
72802;BME280;61891;55.818;37.084;2022-12-05T05:08:55;102181.72;;;-11.35;62.24
72802;BME280;61891;55.818;37.084;2022-12-05T05:11:23;102116.84;;;-11.70;62.28
72802;BME280;61891;55.818;37.084;2022-12-05T05:13:49;102153.03;;;-11.56;62.23
72802;BME280;61891;55.818;37.084;2022-12-05T05:16:18;102167.72;;;-11.49;62.22
72802;BME280;61891;55.818;37.084;2022-12-05T05:18:48;102195.34;;;-11.36;62.60
72802;BME280;61891;55.818;37.084;2022-12-05T05:21:25;102198.88;;;-11.31;62.67
72802;BME280;61891;55.818;37.084;2022-12-05T05:23:51;102122.13;;;-11.64;62.59
72802;BME280;61891;55.818;37.084;2022-12-05T05:26:18;102192.19;;;-11.26;62.34
72802;BME280;61891;55.818;37.084;2022-12-05T05:28:45;102142.28;;;-11.43;62.30
72802;BME280;61891;55.818;37.084;2022-12-05T05:31:12;102183.84;;;-11.19;62.30
72802;BME280;61891;55.818;37.084;2022-12-05T05:33:38;102154.56;;;-11.30;62.63
72802;BME280;61891;55.818;37.084;2022-12-05T05:36:12;102118.34;;;-11.45;62.40
72802;BME280;61891;55.818;37.084;2022-12-05T05:38:40;102176.19;;;-11.17;62.64
72802;BME280;61891;55.818;37.084;2022-12-05T05:41:18;102104.41;;;-11.56;62.14
72802;BME280;61891;55.818;37.084;2022-12-05T05:43:44;102161.72;;;-11.17;62.42
72802;BME280;61891;55.818;37.084;2022-12-05T05:46:11;102108.84;;;-11.49;62.19
72802;BME280;61891;55.818;37.084;2022-12-05T05:48:37;102166.91;;;-11.14;62.43
72802;BME280;61891;55.818;37.084;2022-12-05T05:51:04;102060.59;;;-11.70;62.40
72802;BME280;61891;55.818;37.084;2022-12-05T05:53:31;102158.41;;;-11.13;62.23
72802;BME280;61891;55.818;37.084;2022-12-05T05:55:56;102155.88;;;-11.11;62.06
72802;BME280;61891;55.818;37.084;2022-12-05T05:58:22;102130.81;;;-11.24;62.15
72802;BME280;61891;55.818;37.084;2022-12-05T06:00:48;102162.16;;;-10.98;62.32
72802;BME280;61891;55.818;37.084;2022-12-05T06:03:13;102115.59;;;-11.18;62.27
72802;BME280;61891;55.818;37.084;2022-12-05T06:05:39;101999.88;;;-11.79;61.73
72802;BME280;61891;55.818;37.084;2022-12-05T06:08:05;102159.25;;;-10.76;62.04
72802;BME280;61891;55.818;37.084;2022-12-05T06:10:31;102135.09;;;-10.87;62.09
72802;BME280;61891;55.818;37.084;2022-12-05T06:12:57;102146.50;;;-10.75;61.63
72802;BME280;61891;55.818;37.084;2022-12-05T06:15:24;102156.16;;;-10.63;61.79
72802;BME280;61891;55.818;37.084;2022-12-05T06:17:50;102093.25;;;-10.88;61.55
72802;BME280;61891;55.818;37.084;2022-12-05T06:20:16;102111.56;;;-10.71;61.33
72802;BME280;61891;55.818;37.084;2022-12-05T06:22:42;102146.53;;;-10.35;61.66
72802;BME280;61891;55.818;37.084;2022-12-05T06:25:08;102095.38;;;-10.68;61.72
72802;BME280;61891;55.818;37.084;2022-12-05T06:27:35;102129.38;;;-10.38;61.07
72802;BME280;61891;55.818;37.084;2022-12-05T06:30:00;102136.41;;;-10.29;60.96
72802;BME280;61891;55.818;37.084;2022-12-05T06:32:27;102117.47;;;-10.36;60.82
72802;BME280;61891;55.818;37.084;2022-12-05T06:34:54;102142.56;;;-10.21;60.61
72802;BME280;61891;55.818;37.084;2022-12-05T06:37:20;102146.78;;;-10.23;60.74
72802;BME280;61891;55.818;37.084;2022-12-05T06:39:46;102146.72;;;-10.26;61.04
72802;BME280;61891;55.818;37.084;2022-12-05T06:42:11;102151.72;;;-10.32;61.15
72802;BME280;61891;55.818;37.084;2022-12-05T06:44:37;102140.59;;;-10.33;60.78
72802;BME280;61891;55.818;37.084;2022-12-05T06:47:03;102109.34;;;-10.54;60.72
72802;BME280;61891;55.818;37.084;2022-12-05T06:49:29;102131.00;;;-10.42;60.71
72802;BME280;61891;55.818;37.084;2022-12-05T06:51:59;102140.63;;;-10.31;60.67
72802;BME280;61891;55.818;37.084;2022-12-05T06:54:25;102148.34;;;-10.30;60.21
72802;BME280;61891;55.818;37.084;2022-12-05T06:56:51;102133.78;;;-10.32;60.67
72802;BME280;61891;55.818;37.084;2022-12-05T06:59:17;102115.97;;;-10.26;60.79
72802;BME280;61891;55.818;37.084;2022-12-05T07:01:42;102149.06;;;-9.93;60.25
72802;BME280;61891;55.818;37.084;2022-12-05T07:04:16;102106.94;;;-10.06;59.87
72802;BME280;61891;55.818;37.084;2022-12-05T07:06:43;102147.88;;;-9.65;60.36
72802;BME280;61891;55.818;37.084;2022-12-05T07:09:09;102145.69;;;-9.46;60.01
72802;BME280;61891;55.818;37.084;2022-12-05T07:11:35;102107.03;;;-9.53;59.80
72802;BME280;61891;55.818;37.084;2022-12-05T07:14:02;102140.91;;;-9.24;59.66
72802;BME280;61891;55.818;37.084;2022-12-05T07:16:28;102138.56;;;-9.11;59.07
72802;BME280;61891;55.818;37.084;2022-12-05T07:18:54;102136.22;;;-8.97;59.39
72802;BME280;61891;55.818;37.084;2022-12-05T07:21:20;102135.50;;;-8.87;58.96
72802;BME280;61891;55.818;37.084;2022-12-05T07:23:47;102139.13;;;-8.74;58.87
72802;BME280;61891;55.818;37.084;2022-12-05T07:26:22;102070.25;;;-8.99;58.71
72802;BME280;61891;55.818;37.084;2022-12-05T07:28:50;102124.06;;;-8.50;58.36
72802;BME280;61891;55.818;37.084;2022-12-05T07:31:18;102125.13;;;-8.34;58.35
72802;BME280;61891;55.818;37.084;2022-12-05T07:33:45;102036.28;;;-8.77;57.77
72802;BME280;61891;55.818;37.084;2022-12-05T07:36:13;102113.19;;;-8.26;57.64
72802;BME280;61891;55.818;37.084;2022-12-05T07:38:39;102088.94;;;-8.48;57.76
72802;BME280;61891;55.818;37.084;2022-12-05T07:41:07;102068.28;;;-8.55;57.68
72802;BME280;61891;55.818;37.084;2022-12-05T07:43:33;102096.78;;;-8.38;57.68
72802;BME280;61891;55.818;37.084;2022-12-05T07:46:03;102110.66;;;-8.23;57.16
72802;BME280;61891;55.818;37.084;2022-12-05T07:48:30;102109.09;;;-8.10;56.82
72802;BME280;61891;55.818;37.084;2022-12-05T07:51:00;102108.28;;;-8.04;56.97
72802;BME280;61891;55.818;37.084;2022-12-05T07:53:26;102086.97;;;-7.93;56.90
72802;BME280;61891;55.818;37.084;2022-12-05T07:55:52;102099.94;;;-7.84;56.94
72802;BME280;61891;55.818;37.084;2022-12-05T07:58:18;102043.03;;;-8.11;56.41
72802;BME280;61891;55.818;37.084;2022-12-05T08:00:43;102095.69;;;-7.78;55.92
72802;BME280;61891;55.818;37.084;2022-12-05T08:03:09;102096.53;;;-7.81;56.06
72802;BME280;61891;55.818;37.084;2022-12-05T08:05:35;102084.59;;;-7.73;56.12
72802;BME280;61891;55.818;37.084;2022-12-05T08:08:02;102046.66;;;-7.92;55.55
72802;BME280;61891;55.818;37.084;2022-12-05T08:10:27;102071.69;;;-7.76;55.26
72802;BME280;61891;55.818;37.084;2022-12-05T08:12:53;102080.41;;;-7.62;54.93
72802;BME280;61891;55.818;37.084;2022-12-05T08:15:19;102036.91;;;-7.28;54.72
72802;BME280;61891;55.818;37.084;2022-12-05T08:17:44;102065.72;;;-6.47;54.49
72802;BME280;61891;55.818;37.084;2022-12-05T08:20:10;102048.69;;;-5.75;53.74
72802;BME280;61891;55.818;37.084;2022-12-05T08:22:36;102054.75;;;-5.26;53.78
72802;BME280;61891;55.818;37.084;2022-12-05T08:25:02;102057.34;;;-5.06;53.47
72802;BME280;61891;55.818;37.084;2022-12-05T08:27:28;102046.97;;;-4.96;53.16
72802;BME280;61891;55.818;37.084;2022-12-05T08:29:54;102046.97;;;-4.93;52.84
72802;BME280;61891;55.818;37.084;2022-12-05T08:32:20;102014.28;;;-5.18;52.92
72802;BME280;61891;55.818;37.084;2022-12-05T08:34:45;102047.84;;;-5.39;52.88
72802;BME280;61891;55.818;37.084;2022-12-05T08:37:18;102051.28;;;-5.63;52.62
72802;BME280;61891;55.818;37.084;2022-12-05T08:39:44;102054.72;;;-5.72;52.38
72802;BME280;61891;55.818;37.084;2022-12-05T08:42:10;102040.09;;;-5.74;52.68
72802;BME280;61891;55.818;37.084;2022-12-05T08:44:35;102049.56;;;-5.66;52.54
72802;BME280;61891;55.818;37.084;2022-12-05T08:47:01;102029.78;;;-5.59;52.27
72802;BME280;61891;55.818;37.084;2022-12-05T08:49:27;102044.41;;;-5.41;51.38
72802;BME280;61891;55.818;37.084;2022-12-05T08:51:52;102002.22;;;-5.51;51.51
72802;BME280;61891;55.818;37.084;2022-12-05T08:54:18;102024.59;;;-5.07;51.24
72802;BME280;61891;55.818;37.084;2022-12-05T08:56:44;102019.34;;;-4.78;51.27
72802;BME280;61891;55.818;37.084;2022-12-05T08:59:10;101983.06;;;-4.65;51.81
72802;BME280;61891;55.818;37.084;2022-12-05T09:01:36;101977.81;;;-4.45;51.40
72802;BME280;61891;55.818;37.084;2022-12-05T09:04:04;102007.78;;;-4.07;51.42
72802;BME280;61891;55.818;37.084;2022-12-05T09:06:31;101983.66;;;-4.14;51.11
72802;BME280;61891;55.818;37.084;2022-12-05T09:08:59;101993.22;;;-4.22;50.45
72802;BME280;61891;55.818;37.084;2022-12-05T09:11:28;102003.66;;;-4.37;50.10
72802;BME280;61891;55.818;37.084;2022-12-05T09:13:55;101998.56;;;-4.59;49.92
72802;BME280;61891;55.818;37.084;2022-12-05T09:16:28;101987.44;;;-4.76;50.08
72802;BME280;61891;55.818;37.084;2022-12-05T09:18:54;101959.06;;;-5.03;49.80
72802;BME280;61891;55.818;37.084;2022-12-05T09:21:23;101993.47;;;-4.78;49.69
72802;BME280;61891;55.818;37.084;2022-12-05T09:23:49;102009.00;;;-4.78;49.09
72802;BME280;61891;55.818;37.084;2022-12-05T09:26:18;101996.09;;;-4.89;49.36
72802;BME280;61891;55.818;37.084;2022-12-05T09:28:44;101984.03;;;-4.89;49.10
72802;BME280;61891;55.818;37.084;2022-12-05T09:31:12;101916.91;;;-5.31;49.49
72802;BME280;61891;55.818;37.084;2022-12-05T09:33:39;101984.91;;;-4.97;49.37
72802;BME280;61891;55.818;37.084;2022-12-05T09:36:07;101910.94;;;-5.61;49.16
72802;BME280;61891;55.818;37.084;2022-12-05T09:38:35;101944.47;;;-5.32;49.49
72802;BME280;61891;55.818;37.084;2022-12-05T09:49:02;101885.88;;;-5.30;49.56
72802;BME280;61891;55.818;37.084;2022-12-05T09:51:28;101958.19;;;-4.98;49.72
72802;BME280;61891;55.818;37.084;2022-12-05T09:53:55;101923.78;;;-5.20;49.87
72802;BME280;61891;55.818;37.084;2022-12-05T09:56:27;101914.31;;;-5.28;49.83
72802;BME280;61891;55.818;37.084;2022-12-05T09:58:56;101934.91;;;-4.96;50.25
72802;BME280;61891;55.818;37.084;2022-12-05T10:07:02;101905.56;;;-4.88;49.83
72802;BME280;61891;55.818;37.084;2022-12-05T10:10:33;101938.25;;;-4.73;49.61
72802;BME280;61891;55.818;37.084;2022-12-05T10:20:49;101918.34;;;-4.59;49.68
72802;BME280;61891;55.818;37.084;2022-12-05T10:23:22;101918.28;;;-4.45;49.33
72802;BME280;61891;55.818;37.084;2022-12-05T10:25:54;101924.34;;;-4.50;49.37
72802;BME280;61891;55.818;37.084;2022-12-05T10:28:30;101868.47;;;-4.82;48.63
72802;BME280;61891;55.818;37.084;2022-12-05T10:31:01;101917.38;;;-4.41;48.84
72802;BME280;61891;55.818;37.084;2022-12-05T10:33:35;101922.47;;;-4.27;48.75
72802;BME280;61891;55.818;37.084;2022-12-05T10:36:08;101932.78;;;-4.21;48.90
72802;BME280;61891;55.818;37.084;2022-12-05T10:38:34;101921.50;;;-4.12;48.71
72802;BME280;61891;55.818;37.084;2022-12-05T10:41:05;101919.59;;;-3.91;48.27
72802;BME280;61891;55.818;37.084;2022-12-05T10:43:32;101921.13;;;-3.68;48.53
72802;BME280;61891;55.818;37.084;2022-12-05T10:45:59;101908.97;;;-3.59;48.66
72802;BME280;61891;55.818;37.084;2022-12-05T10:48:29;101920.13;;;-3.52;47.89
72802;BME280;61891;55.818;37.084;2022-12-05T10:50:59;101911.56;;;-3.60;47.70
72802;BME280;61891;55.818;37.084;2022-12-05T10:53:48;101916.72;;;-3.59;47.48
72802;BME280;61891;55.818;37.084;2022-12-05T10:59:10;101917.47;;;-3.47;47.21
72802;BME280;61891;55.818;37.084;2022-12-05T11:01:37;101916.63;;;-3.48;47.14
72802;BME280;61891;55.818;37.084;2022-12-05T11:04:17;101887.47;;;-3.71;46.60
72802;BME280;61891;55.818;37.084;2022-12-05T11:07:04;101863.50;;;-3.93;45.42
72802;BME280;61891;55.818;37.084;2022-12-05T11:09:32;101893.59;;;-3.77;45.84
72802;BME280;61891;55.818;37.084;2022-12-05T11:17:30;101910.06;;;-3.85;46.16
72802;BME280;61891;55.818;37.084;2022-12-05T11:19:57;101894.75;;;-4.14;46.09
72802;BME280;61891;55.818;37.084;2022-12-05T11:22:34;101885.53;;;-4.49;46.14
72802;BME280;61891;55.818;37.084;2022-12-05T11:25:00;101894.19;;;-4.55;46.53
72802;BME280;61891;55.818;37.084;2022-12-05T11:27:33;101896.81;;;-4.64;45.91
72802;BME280;61891;55.818;37.084;2022-12-05T11:32:37;101881.19;;;-4.48;46.37
72802;BME280;61891;55.818;37.084;2022-12-05T11:35:07;101882.81;;;-4.32;46.76
72802;BME280;61891;55.818;37.084;2022-12-05T11:40:04;101833.50;;;-4.18;46.90
72802;BME280;61891;55.818;37.084;2022-12-05T11:56:35;101825.41;;;-3.83;45.77
72802;BME280;61891;55.818;37.084;2022-12-05T12:04:57;101846.31;;;-3.20;44.94
72802;BME280;61891;55.818;37.084;2022-12-05T12:08:04;101743.44;;;-3.20;44.99
72802;BME280;61891;55.818;37.084;2022-12-05T12:22:33;101797.88;;;-1.60;43.17
72802;BME280;61891;55.818;37.084;2022-12-05T12:25:23;101787.44;;;-1.17;42.88
72802;BME280;61891;55.818;37.084;2022-12-05T12:30:21;101810.47;;;-1.85;43.38
72802;BME280;61891;55.818;37.084;2022-12-05T12:35:31;101792.66;;;-3.87;43.81
72802;BME280;61891;55.818;37.084;2022-12-05T12:41:06;101784.97;;;-5.04;45.22
72802;BME280;61891;55.818;37.084;2022-12-05T12:52:03;101828.38;;;-6.02;46.74
72802;BME280;61891;55.818;37.084;2022-12-05T13:02:21;101811.19;;;-6.70;47.84
72802;BME280;61891;55.818;37.084;2022-12-05T13:05:25;101803.44;;;-6.85;47.82
72802;BME280;61891;55.818;37.084;2022-12-05T13:08:01;101563.59;;;-8.37;48.44
72802;BME280;61891;55.818;37.084;2022-12-05T13:10:37;101776.72;;;-7.22;48.64
72802;BME280;61891;55.818;37.084;2022-12-05T13:13:06;101620.25;;;-8.16;48.70
72802;BME280;61891;55.818;37.084;2022-12-05T13:18:03;101787.88;;;-7.28;49.15
72802;BME280;61891;55.818;37.084;2022-12-05T13:20:33;101793.88;;;-7.26;49.16
72802;BME280;61891;55.818;37.084;2022-12-05T13:23:00;101793.84;;;-7.35;49.45
72802;BME280;61891;55.818;37.084;2022-12-05T13:25:30;101792.13;;;-7.40;49.78
72802;BME280;61891;55.818;37.084;2022-12-05T13:28:00;101766.31;;;-7.59;49.36
72802;BME280;61891;55.818;37.084;2022-12-05T13:30:28;101760.25;;;-7.67;50.04
72802;BME280;61891;55.818;37.084;2022-12-05T13:32:57;101794.66;;;-7.54;49.90
72802;BME280;61891;55.818;37.084;2022-12-05T13:35:36;101749.91;;;-7.79;49.92
72802;BME280;61891;55.818;37.084;2022-12-05T13:38:26;101704.28;;;-8.10;50.24
72802;BME280;61891;55.818;37.084;2022-12-05T13:41:11;101771.41;;;-7.66;50.41
72802;BME280;61891;55.818;37.084;2022-12-05T13:43:56;101778.28;;;-7.65;50.50
72802;BME280;61891;55.818;37.084;2022-12-05T13:46:30;101724.06;;;-8.02;50.69
72802;BME280;61891;55.818;37.084;2022-12-05T13:49:04;101678.47;;;-8.29;50.85
72802;BME280;61891;55.818;37.084;2022-12-05T13:51:40;101776.53;;;-7.75;51.29
72802;BME280;61891;55.818;37.084;2022-12-05T13:54:25;101733.50;;;-8.01;51.33
72802;BME280;61891;55.818;37.084;2022-12-05T13:57:00;101777.31;;;-7.87;51.50
72802;BME280;61891;55.818;37.084;2022-12-05T14:07:53;101779.84;;;-7.96;52.45
72802;BME280;61891;55.818;37.084;2022-12-05T14:13:37;101772.13;;;-7.98;52.40
72802;BME280;61891;55.818;37.084;2022-12-05T14:18:56;101736.00;;;-8.15;52.77
72802;BME280;61891;55.818;37.084;2022-12-05T14:21:37;101675.81;;;-8.49;52.93
72802;BME280;61891;55.818;37.084;2022-12-05T14:34:46;101726.63;;;-8.05;53.27
72802;BME280;61891;55.818;37.084;2022-12-05T14:39:40;101732.69;;;-7.89;53.34
72802;BME280;61891;55.818;37.084;2022-12-05T14:42:31;101716.38;;;-7.93;53.27
72802;BME280;61891;55.818;37.084;2022-12-05T14:45:00;101723.22;;;-7.98;53.43
72802;BME280;61891;55.818;37.084;2022-12-05T14:47:29;101715.50;;;-7.96;53.62
72802;BME280;61891;55.818;37.084;2022-12-05T14:50:22;101690.59;;;-8.05;53.55
72802;BME280;61891;55.818;37.084;2022-12-05T14:58:30;101726.63;;;-8.02;54.02
72802;BME280;61891;55.818;37.084;2022-12-05T15:00:59;101606.28;;;-8.71;53.39
72802;BME280;61891;55.818;37.084;2022-12-05T15:03:32;101715.44;;;-8.12;53.66
72802;BME280;61891;55.818;37.084;2022-12-05T15:06:02;101703.38;;;-8.22;53.76
72802;BME280;61891;55.818;37.084;2022-12-05T15:08:32;101646.66;;;-8.55;54.24
72802;BME280;61891;55.818;37.084;2022-12-05T15:11:00;101714.56;;;-8.12;54.11
72802;BME280;61891;55.818;37.084;2022-12-05T15:13:26;101709.44;;;-8.12;53.79
72802;BME280;61891;55.818;37.084;2022-12-05T15:16:00;101657.88;;;-8.39;54.29
72802;BME280;61891;55.818;37.084;2022-12-05T15:18:37;101713.72;;;-8.09;54.23
72802;BME280;61891;55.818;37.084;2022-12-05T15:24:03;101709.41;;;-8.15;54.36
72802;BME280;61891;55.818;37.084;2022-12-05T15:37:02;101536.81;;;-8.90;54.39
72802;BME280;61891;55.818;37.084;2022-12-05T15:39:29;101681.16;;;-8.04;54.59
72802;BME280;61891;55.818;37.084;2022-12-05T15:42:14;101690.63;;;-8.02;54.72
72802;BME280;61891;55.818;37.084;2022-12-05T15:44:40;101651.06;;;-8.22;54.74
72802;BME280;61891;55.818;37.084;2022-12-05T15:47:21;101663.09;;;-8.18;54.74
72802;BME280;61891;55.818;37.084;2022-12-05T15:49:48;101687.19;;;-8.01;54.89
72802;BME280;61891;55.818;37.084;2022-12-05T15:55:14;101682.94;;;-7.91;54.62
72802;BME280;61891;55.818;37.084;2022-12-05T15:57:51;101648.56;;;-8.07;54.87